createdAt,value
2017-08-25T00:00:13.868Z,8.37
2017-08-25T00:02:41.305Z,5.10
2017-08-25T00:05:08.732Z,4.23
2017-08-25T00:07:36.160Z,3.40
2017-08-25T00:10:03.592Z,4.73
2017-08-25T00:12:31.025Z,4.70
2017-08-25T00:14:58.439Z,5.30
2017-08-25T00:17:25.893Z,4.17
2017-08-25T00:19:53.317Z,7.63
2017-08-25T00:22:20.741Z,9.00
2017-08-25T00:24:48.228Z,4.50
2017-08-25T00:27:15.661Z,3.00
2017-08-25T00:29:43.089Z,3.93
2017-08-25T00:32:10.701Z,4.30
2017-08-25T00:34:38.116Z,4.73
2017-08-25T00:37:05.548Z,4.53
2017-08-25T00:39:33.034Z,8.80
2017-08-25T00:42:00.452Z,6.97
2017-08-25T00:44:27.888Z,3.87
2017-08-25T00:46:55.308Z,4.17
2017-08-25T00:49:22.729Z,5.80
2017-08-25T00:51:50.181Z,3.77
2017-08-25T00:54:18.121Z,4.80
2017-08-25T00:56:45.620Z,9.23
2017-08-25T00:59:13.041Z,4.53
2017-08-25T01:01:40.474Z,6.73
2017-08-25T01:04:07.942Z,6.47
2017-08-25T01:06:35.372Z,3.80
2017-08-25T01:09:02.799Z,5.00
2017-08-25T01:11:30.237Z,5.97
2017-08-25T01:13:57.664Z,5.47
2017-08-25T01:16:25.116Z,5.20
2017-08-25T01:18:52.539Z,6.50
2017-08-25T01:21:19.966Z,7.23
2017-08-25T01:23:47.397Z,9.63
2017-08-25T01:26:14.815Z,7.50
2017-08-25T01:28:42.249Z,4.83
2017-08-25T01:31:09.685Z,5.20
2017-08-25T01:33:37.108Z,3.53
2017-08-25T01:36:05.014Z,6.67
2017-08-25T01:38:32.526Z,6.67
2017-08-25T01:40:59.944Z,7.50
2017-08-25T01:43:27.382Z,5.57
2017-08-25T01:45:54.799Z,5.67
2017-08-25T01:48:22.233Z,3.60
2017-08-25T01:50:49.656Z,4.93
2017-08-25T01:53:17.096Z,7.80
2017-08-25T01:55:44.516Z,7.23
2017-08-25T01:58:11.935Z,9.40
2017-08-25T02:00:39.368Z,7.60
2017-08-25T02:03:06.824Z,5.77
2017-08-25T02:05:34.251Z,5.27
2017-08-25T02:08:02.657Z,6.63
2017-08-25T02:10:30.088Z,8.30
2017-08-25T02:12:57.511Z,7.50
2017-08-25T02:15:24.956Z,5.67
2017-08-25T02:17:52.487Z,6.50
2017-08-25T02:20:19.941Z,6.27
2017-08-25T02:22:47.365Z,9.13
2017-08-25T02:25:14.857Z,4.27
2017-08-25T02:27:42.284Z,4.70
2017-08-25T02:30:09.708Z,8.87
2017-08-25T02:32:37.135Z,7.43
2017-08-25T02:35:04.565Z,5.47
2017-08-25T02:37:32.005Z,5.27
2017-08-25T02:39:59.433Z,8.50
2017-08-25T02:42:26.861Z,4.63
2017-08-25T02:44:54.298Z,4.37
2017-08-25T02:47:21.728Z,6.87
2017-08-25T02:49:49.159Z,8.47
2017-08-25T02:52:16.583Z,9.30
2017-08-25T02:54:44.020Z,9.60
2017-08-25T02:57:11.448Z,8.40
2017-08-25T02:59:38.901Z,12.30
2017-08-25T03:02:06.330Z,9.43
2017-08-25T03:04:33.768Z,11.60
2017-08-25T03:07:01.195Z,7.10
2017-08-25T03:09:28.631Z,10.07
2017-08-25T03:11:56.070Z,6.93
2017-08-25T03:14:23.508Z,8.70
2017-08-25T03:16:50.945Z,5.70
2017-08-25T03:19:18.413Z,10.43
2017-08-25T03:21:46.603Z,5.10
2017-08-25T03:24:14.051Z,13.87
2017-08-25T03:26:41.488Z,12.00
2017-08-25T03:29:08.910Z,7.00
2017-08-25T03:31:36.331Z,5.33
2017-08-25T03:34:03.766Z,5.63
2017-08-25T03:36:31.217Z,7.57
2017-08-25T03:38:58.643Z,8.30
2017-08-25T03:41:26.076Z,6.17
2017-08-25T03:43:53.517Z,9.80
2017-08-25T03:46:20.959Z,5.70
2017-08-25T03:48:48.397Z,8.17
2017-08-25T03:51:17.833Z,10.33
2017-08-25T03:53:45.269Z,14.20
2017-08-25T03:56:12.696Z,10.23
2017-08-25T03:58:40.137Z,10.97
2017-08-25T04:01:07.565Z,6.50
2017-08-25T04:03:34.996Z,5.50
2017-08-25T04:06:02.444Z,5.13
2017-08-25T04:08:29.935Z,6.30
2017-08-25T04:10:57.373Z,7.20
2017-08-25T04:13:24.812Z,9.60
2017-08-25T04:15:52.277Z,7.23
2017-08-25T04:18:19.709Z,5.30
2017-08-25T04:20:47.140Z,8.30
2017-08-25T04:23:14.574Z,8.70
2017-08-25T04:25:42.007Z,7.53
2017-08-25T04:28:09.435Z,7.10
2017-08-25T04:30:36.868Z,5.80
2017-08-25T04:33:04.306Z,6.73
2017-08-25T04:35:31.763Z,10.10
2017-08-25T04:37:59.185Z,5.20
2017-08-25T04:40:26.614Z,6.57
2017-08-25T04:42:54.048Z,12.67
2017-08-25T04:45:21.472Z,4.73
2017-08-25T04:47:49.007Z,6.07
2017-08-25T04:50:16.467Z,5.77
2017-08-25T04:52:43.888Z,6.60
2017-08-25T04:55:11.331Z,7.00
2017-08-25T04:57:38.776Z,7.93
2017-08-25T05:00:06.196Z,5.60
2017-08-25T05:02:33.636Z,9.70
2017-08-25T05:05:01.063Z,11.27
2017-08-25T05:07:28.518Z,6.77
2017-08-25T05:10:01.769Z,13.90
2017-08-25T05:12:29.188Z,9.23
2017-08-25T05:14:56.623Z,10.30
2017-08-25T05:17:24.048Z,8.87
2017-08-25T05:19:51.486Z,9.33
2017-08-25T05:22:18.912Z,8.60
2017-08-25T05:24:46.355Z,7.20
2017-08-25T05:27:13.776Z,8.57
2017-08-25T05:29:41.264Z,8.30
2017-08-25T05:32:08.688Z,7.97
2017-08-25T05:34:36.124Z,8.93
2017-08-25T05:37:03.557Z,7.13
2017-08-25T05:39:30.990Z,14.50
2017-08-25T05:41:58.431Z,9.80
2017-08-25T05:44:25.857Z,8.63
2017-08-25T05:46:53.293Z,10.40
2017-08-25T05:49:20.735Z,14.00
2017-08-25T05:51:48.168Z,10.03
2017-08-25T05:54:15.596Z,11.80
2017-08-25T05:56:43.035Z,12.40
2017-08-25T05:59:10.472Z,8.40
2017-08-25T06:01:37.923Z,10.70
2017-08-25T06:04:05.356Z,10.30
2017-08-25T06:06:32.789Z,8.20
2017-08-25T06:09:00.217Z,7.97
2017-08-25T06:11:27.645Z,9.47
2017-08-25T06:13:55.086Z,6.40
2017-08-25T06:16:22.500Z,9.27
2017-08-25T06:18:49.936Z,10.00
2017-08-25T06:21:17.373Z,10.57
2017-08-25T06:23:44.812Z,8.10
2017-08-25T06:26:12.239Z,10.13
2017-08-25T06:28:39.685Z,11.67
2017-08-25T06:31:07.116Z,10.07
2017-08-25T06:33:34.544Z,12.20
2017-08-25T06:36:01.986Z,8.27
2017-08-25T06:38:29.414Z,11.10
2017-08-25T06:40:56.853Z,16.17
2017-08-25T06:43:24.285Z,14.10
2017-08-25T06:45:51.724Z,12.03
2017-08-25T06:48:19.168Z,13.10
2017-08-25T06:50:46.590Z,11.07
2017-08-25T06:53:14.013Z,11.83
2017-08-25T06:55:41.449Z,12.33
2017-08-25T06:58:08.891Z,17.50
2017-08-25T07:00:36.323Z,10.20
2017-08-25T07:03:03.761Z,11.40
2017-08-25T07:05:31.444Z,12.93
2017-08-25T07:07:58.877Z,8.67
2017-08-25T07:10:26.307Z,12.97
2017-08-25T07:12:53.768Z,10.07
2017-08-25T07:15:21.210Z,11.30
2017-08-25T07:17:48.632Z,12.30
2017-08-25T07:20:16.060Z,8.97
2017-08-25T07:22:43.492Z,7.43
2017-08-25T07:25:10.923Z,8.43
2017-08-25T07:27:38.461Z,19.67
2017-08-25T07:30:05.883Z,6.07
2017-08-25T07:32:33.312Z,13.60
2017-08-25T07:35:00.799Z,9.03
2017-08-25T07:37:28.230Z,10.23
2017-08-25T07:39:55.655Z,8.33
2017-08-25T07:42:23.076Z,6.63
2017-08-25T07:44:50.513Z,8.13
2017-08-25T07:47:17.939Z,7.20
2017-08-25T07:49:45.376Z,8.10
2017-08-25T07:52:12.800Z,9.17
2017-08-25T07:54:40.233Z,5.53
2017-08-25T07:57:07.674Z,10.23
2017-08-25T07:59:35.095Z,6.93
2017-08-25T08:02:02.525Z,7.90
2017-08-25T08:04:29.944Z,5.60
2017-08-25T08:06:57.388Z,8.30
2017-08-25T08:09:24.925Z,9.93
2017-08-25T08:11:52.355Z,14.20
2017-08-25T08:14:19.785Z,6.23
2017-08-25T08:16:47.235Z,5.90
2017-08-25T08:19:14.654Z,6.50
2017-08-25T08:21:42.089Z,11.90
2017-08-25T08:24:09.517Z,5.43
2017-08-25T08:26:36.969Z,4.90
2017-08-25T08:29:04.401Z,7.70
2017-08-25T08:31:31.838Z,4.70
2017-08-25T08:33:59.261Z,7.93
2017-08-25T08:36:32.452Z,4.67
2017-08-25T08:38:59.893Z,11.53
2017-08-25T08:41:27.333Z,6.13
2017-08-25T08:43:54.756Z,4.90
2017-08-25T08:46:22.189Z,5.93
2017-08-25T08:48:49.612Z,4.30
2017-08-25T08:51:17.082Z,6.60
2017-08-25T08:53:44.508Z,8.33
2017-08-25T08:56:11.941Z,4.47
2017-08-25T08:58:39.377Z,8.37
2017-08-25T09:01:06.805Z,5.80
2017-08-25T09:03:34.245Z,10.67
2017-08-25T09:06:07.383Z,4.00
2017-08-25T09:08:34.822Z,6.53
2017-08-25T09:11:02.249Z,4.80
2017-08-25T09:13:29.696Z,4.97
2017-08-25T09:15:57.193Z,4.27
2017-08-25T09:18:24.635Z,7.43
2017-08-25T09:20:52.059Z,8.50
2017-08-25T09:23:19.490Z,9.13
2017-08-25T09:25:46.916Z,12.07
2017-08-25T09:28:14.405Z,4.00
2017-08-25T09:30:41.836Z,4.47
2017-08-25T09:33:09.271Z,10.70
2017-08-25T09:35:36.705Z,4.47
2017-08-25T09:38:04.155Z,5.50
2017-08-25T09:40:31.588Z,4.70
2017-08-25T09:42:59.012Z,5.40
2017-08-25T09:45:26.476Z,5.90
2017-08-25T09:47:53.912Z,7.60
2017-08-25T09:50:21.390Z,7.53
2017-08-25T09:52:48.826Z,5.17
2017-08-25T09:55:16.256Z,5.37
2017-08-25T09:57:43.688Z,5.80
2017-08-25T10:00:13.192Z,8.57
2017-08-25T10:02:40.637Z,7.20
2017-08-25T10:05:08.056Z,4.17
2017-08-25T10:07:35.488Z,3.43
2017-08-25T10:10:02.924Z,3.10
2017-08-25T10:12:30.354Z,5.50
2017-08-25T10:14:57.800Z,3.17
2017-08-25T10:17:25.253Z,4.77
2017-08-25T10:19:52.724Z,3.67
2017-08-25T10:22:20.148Z,6.00
2017-08-25T10:24:48.403Z,3.13
2017-08-25T10:27:15.828Z,3.77
2017-08-25T10:29:43.266Z,4.30
2017-08-25T10:32:10.701Z,2.90
2017-08-25T10:34:49.903Z,7.00
2017-08-25T10:37:29.104Z,4.23
2017-08-25T10:40:08.429Z,5.87
2017-08-25T10:42:47.761Z,4.80
2017-08-25T10:45:21.233Z,3.47
2017-08-25T10:47:48.656Z,3.90
2017-08-25T10:50:16.100Z,6.10
2017-08-25T10:52:43.561Z,4.93
2017-08-25T10:55:10.989Z,4.60
2017-08-25T10:57:38.431Z,3.63
2017-08-25T11:00:05.856Z,4.30
2017-08-25T11:02:33.288Z,2.80
2017-08-25T11:05:00.722Z,2.73
2017-08-25T11:07:28.158Z,4.23
2017-08-25T11:09:55.584Z,4.80
2017-08-25T11:12:23.027Z,5.67
2017-08-25T11:14:50.457Z,2.90
2017-08-25T11:17:17.894Z,4.73
2017-08-25T11:19:45.331Z,3.47
2017-08-25T11:22:12.762Z,10.30
2017-08-25T11:24:42.204Z,4.13
2017-08-25T11:27:09.641Z,5.80
2017-08-25T11:29:37.073Z,6.90
2017-08-25T11:32:04.506Z,3.57
2017-08-25T11:34:31.940Z,4.27
2017-08-25T11:36:59.369Z,8.20
2017-08-25T11:39:26.800Z,2.93
2017-08-25T11:41:54.229Z,3.30
2017-08-25T11:44:21.656Z,7.10
2017-08-25T11:46:49.099Z,3.40
2017-08-25T11:49:16.573Z,5.03
2017-08-25T11:51:44.073Z,3.40
2017-08-25T11:54:11.498Z,4.10
2017-08-25T11:56:38.944Z,4.87
2017-08-25T11:59:06.373Z,4.17
2017-08-25T12:01:33.812Z,4.80
2017-08-25T12:04:01.253Z,7.67
2017-08-25T12:06:28.693Z,5.10
2017-08-25T12:08:56.117Z,3.43
2017-08-25T12:11:23.545Z,3.83
2017-08-25T12:13:50.981Z,3.17
2017-08-25T12:16:18.414Z,5.70
2017-08-25T12:18:45.832Z,4.03
2017-08-25T12:21:13.260Z,6.40
2017-08-25T12:23:40.699Z,3.50
2017-08-25T12:26:08.120Z,8.60
2017-08-25T12:28:35.552Z,3.23
2017-08-25T12:31:02.980Z,4.30
2017-08-25T12:33:30.417Z,3.20
2017-08-25T12:35:57.843Z,4.00
2017-08-25T12:38:25.268Z,3.67
2017-08-25T12:40:52.714Z,5.33
2017-08-25T12:43:20.136Z,3.43
2017-08-25T12:45:47.575Z,4.27
2017-08-25T12:48:14.987Z,4.37
2017-08-25T12:50:44.432Z,4.10
2017-08-25T12:53:11.868Z,4.30
2017-08-25T12:55:39.305Z,5.13
2017-08-25T12:58:06.749Z,5.40
2017-08-25T13:00:34.192Z,4.23
2017-08-25T13:03:01.622Z,3.70
2017-08-25T13:05:29.059Z,3.83
2017-08-25T13:07:56.500Z,7.70
2017-08-25T13:10:23.924Z,7.70
2017-08-25T13:12:51.363Z,4.07
2017-08-25T13:15:18.884Z,6.10
2017-08-25T13:17:47.108Z,6.20
2017-08-25T13:20:14.535Z,6.10
2017-08-25T13:22:41.976Z,6.80
2017-08-25T13:25:09.401Z,7.50
2017-08-25T13:27:36.909Z,3.27
2017-08-25T13:30:05.114Z,7.63
2017-08-25T13:32:32.617Z,5.57
2017-08-25T13:35:00.865Z,6.63
2017-08-25T13:37:28.285Z,4.97
2017-08-25T13:39:55.725Z,5.00
2017-08-25T13:42:23.152Z,5.07
2017-08-25T13:44:50.597Z,6.40
2017-08-25T13:47:18.036Z,3.63
2017-08-25T13:49:45.463Z,5.57
2017-08-25T13:52:14.077Z,5.90
2017-08-25T13:54:41.538Z,4.77
2017-08-25T13:57:08.960Z,4.80
2017-08-25T13:59:36.514Z,6.63
2017-08-25T14:02:03.995Z,9.57
2017-08-25T14:04:31.444Z,5.80
2017-08-25T14:06:58.876Z,8.50
2017-08-25T14:09:26.342Z,6.80
2017-08-25T14:11:53.788Z,7.03
2017-08-25T14:14:21.283Z,5.67
2017-08-25T14:16:48.704Z,4.83
2017-08-25T14:19:16.160Z,6.70
2017-08-25T14:21:43.602Z,6.13
2017-08-25T14:24:11.033Z,4.70
2017-08-25T14:26:39.256Z,4.20
2017-08-25T14:29:06.712Z,9.60
2017-08-25T14:31:34.140Z,7.93
2017-08-25T14:34:01.574Z,6.30
2017-08-25T14:36:29.012Z,4.50
2017-08-25T14:38:56.436Z,4.80
2017-08-25T14:41:23.898Z,6.67
2017-08-25T14:43:51.328Z,4.20
2017-08-25T14:46:18.757Z,4.43
2017-08-25T14:48:46.216Z,5.83
2017-08-25T14:51:13.632Z,9.00
2017-08-25T14:53:41.072Z,4.20
2017-08-25T14:56:08.508Z,6.47
2017-08-25T14:58:35.940Z,5.37
2017-08-25T15:01:03.364Z,5.53
2017-08-25T15:03:30.807Z,4.10
2017-08-25T15:05:58.223Z,4.20
2017-08-25T15:08:25.666Z,8.53
2017-08-25T15:10:53.096Z,3.73
2017-08-25T15:13:20.539Z,5.03
2017-08-25T15:15:47.959Z,5.53
2017-08-25T15:18:15.396Z,11.80
2017-08-25T15:20:42.821Z,5.80
2017-08-25T15:23:10.254Z,5.47
2017-08-25T15:25:37.675Z,7.17
2017-08-25T15:28:05.113Z,5.53
2017-08-25T15:30:32.545Z,11.67
2017-08-25T15:32:59.983Z,5.70
2017-08-25T15:35:27.441Z,8.33
2017-08-25T15:37:54.868Z,11.43
2017-08-25T15:40:22.287Z,6.03
2017-08-25T15:42:49.716Z,8.80
2017-08-25T15:45:17.149Z,4.53
2017-08-25T15:47:44.582Z,4.10
2017-08-25T15:50:12.004Z,5.40
2017-08-25T15:52:39.433Z,11.73
2017-08-25T15:55:06.860Z,6.67
2017-08-25T15:57:34.297Z,6.60
2017-08-25T16:00:09.040Z,5.03
2017-08-25T16:02:36.480Z,4.60
2017-08-25T16:05:03.904Z,6.17
2017-08-25T16:07:31.335Z,4.47
2017-08-25T16:09:58.765Z,6.77
2017-08-25T16:12:26.192Z,6.13
2017-08-25T16:14:53.616Z,7.43
2017-08-25T16:17:21.050Z,8.93
2017-08-25T16:19:48.490Z,10.20
2017-08-25T16:22:15.937Z,7.47
2017-08-25T16:24:43.377Z,5.03
2017-08-25T16:27:10.805Z,7.73
2017-08-25T16:29:38.245Z,6.37
2017-08-25T16:32:05.668Z,5.67
2017-08-25T16:34:33.092Z,8.00
2017-08-25T16:37:00.519Z,9.10
2017-08-25T16:39:27.960Z,23.33
2017-08-25T16:41:55.428Z,8.93
2017-08-25T16:44:22.853Z,15.17
2017-08-25T16:46:50.283Z,15.90
2017-08-25T16:49:17.761Z,12.93
2017-08-25T16:51:45.196Z,13.33
2017-08-25T16:54:12.629Z,18.77
2017-08-25T16:56:40.065Z,16.20
2017-08-25T16:59:07.488Z,18.50
2017-08-25T17:01:34.921Z,18.40
2017-08-25T17:04:02.348Z,15.10
2017-08-25T17:06:29.776Z,20.23
2017-08-25T17:08:57.214Z,17.13
2017-08-25T17:11:24.640Z,13.23
2017-08-25T17:13:52.068Z,10.63
2017-08-25T17:16:19.509Z,14.23
2017-08-25T17:18:46.950Z,16.43
2017-08-25T17:21:14.387Z,18.07
2017-08-25T17:23:41.808Z,12.53
2017-08-25T17:26:09.249Z,13.53
2017-08-25T17:28:36.681Z,16.33
2017-08-25T17:31:04.136Z,16.00
2017-08-25T17:33:31.575Z,16.93
2017-08-25T17:35:59.016Z,14.67
2017-08-25T17:38:26.443Z,14.87
2017-08-25T17:40:53.871Z,18.97
2017-08-25T17:43:21.319Z,14.03
2017-08-25T17:45:48.752Z,16.03
2017-08-25T17:48:16.188Z,16.77
2017-08-25T17:50:43.619Z,11.50
2017-08-25T17:53:11.063Z,21.23
2017-08-25T17:55:38.491Z,18.30
2017-08-25T17:58:05.936Z,18.00
2017-08-25T18:00:33.369Z,15.60
2017-08-25T18:03:00.804Z,31.77
2017-08-25T18:05:28.236Z,25.40
2017-08-25T18:07:55.677Z,32.23
2017-08-25T18:10:23.128Z,18.23
2017-08-25T18:12:50.565Z,16.63
2017-08-25T18:15:18.021Z,15.50
2017-08-25T18:17:45.440Z,19.10
2017-08-25T18:20:12.868Z,14.50
2017-08-25T18:22:40.308Z,15.73
2017-08-25T18:25:07.745Z,23.20
2017-08-25T18:27:35.178Z,17.63
2017-08-25T18:30:02.613Z,23.33
2017-08-25T18:32:30.089Z,16.53
2017-08-25T18:34:57.525Z,16.03
2017-08-25T18:37:24.975Z,16.50
2017-08-25T18:39:52.408Z,15.70
2017-08-25T18:42:19.846Z,15.47
2017-08-25T18:44:47.292Z,16.50
2017-08-25T18:47:14.716Z,13.80
2017-08-25T18:49:42.166Z,17.50
2017-08-25T18:52:09.597Z,14.10
2017-08-25T18:54:37.032Z,18.13
2017-08-25T18:57:04.465Z,13.57
2017-08-25T18:59:31.905Z,13.83
2017-08-25T19:01:59.328Z,15.53
2017-08-25T19:04:26.776Z,17.87
2017-08-25T19:06:54.203Z,18.20
2017-08-25T19:09:21.642Z,18.93
2017-08-25T19:11:49.074Z,17.80
2017-08-25T19:14:16.514Z,18.63
2017-08-25T19:16:44.924Z,14.27
2017-08-25T19:19:12.361Z,16.53
2017-08-25T19:21:39.795Z,14.50
2017-08-25T19:24:07.241Z,18.97
2017-08-25T19:26:34.667Z,24.30
2017-08-25T19:29:02.109Z,15.53
2017-08-25T19:31:29.549Z,19.50
2017-08-25T19:33:56.983Z,21.97
2017-08-25T19:36:24.419Z,19.10
2017-08-25T19:38:51.864Z,14.27
2017-08-25T19:41:19.307Z,21.50
2017-08-25T19:43:46.745Z,21.67
2017-08-25T19:46:14.194Z,18.30
2017-08-25T19:48:41.620Z,18.93
2017-08-25T19:51:09.057Z,16.57
2017-08-25T19:53:36.512Z,18.87
2017-08-25T19:56:04.976Z,17.93
2017-08-25T19:58:32.448Z,16.00
2017-08-25T20:00:59.892Z,17.13
2017-08-25T20:03:27.330Z,21.37
2017-08-25T20:05:54.763Z,18.27
2017-08-25T20:08:22.196Z,21.77
2017-08-25T20:10:49.656Z,15.00
2017-08-25T20:13:17.089Z,19.20
2017-08-25T20:15:44.548Z,17.17
2017-08-25T20:18:11.986Z,14.50
2017-08-25T20:20:39.488Z,17.97
2017-08-25T20:23:06.941Z,16.67
2017-08-25T20:25:34.381Z,16.90
2017-08-25T20:28:01.818Z,16.60
2017-08-25T20:30:29.270Z,16.10
2017-08-25T20:32:56.725Z,14.73
2017-08-25T20:35:24.168Z,21.17
2017-08-25T20:37:51.604Z,15.63
2017-08-25T20:40:19.041Z,18.67
2017-08-25T20:42:46.498Z,23.40
2017-08-25T20:45:13.933Z,15.00
2017-08-25T20:47:41.372Z,21.67
2017-08-25T20:50:08.796Z,14.97
2017-08-25T20:52:36.236Z,17.80
2017-08-25T20:55:03.672Z,18.00
2017-08-25T20:57:31.108Z,18.50
2017-08-25T20:59:58.556Z,22.53
2017-08-25T21:02:26.001Z,15.83
2017-08-25T21:04:53.425Z,17.57
2017-08-25T21:07:20.855Z,16.00
2017-08-25T21:09:48.288Z,17.20
2017-08-25T21:12:15.748Z,16.77
2017-08-25T21:14:43.181Z,14.03
2017-08-25T21:17:10.616Z,16.60
2017-08-25T21:19:38.044Z,15.80
2017-08-25T21:22:05.476Z,15.33
2017-08-25T21:24:32.918Z,19.33
2017-08-25T21:27:00.355Z,15.70
2017-08-25T21:29:27.793Z,18.00
2017-08-25T21:31:55.224Z,14.03
2017-08-25T21:34:22.659Z,17.67
2017-08-25T21:36:50.088Z,18.40
2017-08-25T21:39:17.538Z,16.30
2017-08-25T21:41:44.959Z,21.83
2017-08-25T21:44:12.424Z,20.33
2017-08-25T21:46:39.845Z,16.47
2017-08-25T21:49:07.284Z,26.63
2017-08-25T21:51:34.720Z,22.63
2017-08-25T21:54:02.155Z,20.30
2017-08-25T21:56:29.592Z,17.70
2017-08-25T21:58:57.039Z,19.23
2017-08-25T22:01:24.465Z,17.60
2017-08-25T22:03:51.905Z,18.63
2017-08-25T22:06:19.340Z,16.83
2017-08-25T22:08:46.780Z,24.80
2017-08-25T22:11:14.216Z,13.80
2017-08-25T22:13:41.652Z,18.47
2017-08-25T22:16:09.192Z,15.53
2017-08-25T22:18:36.632Z,23.10
2017-08-25T22:21:04.073Z,21.40
2017-08-25T22:23:31.519Z,18.83
2017-08-25T22:25:58.957Z,22.50
2017-08-25T22:28:26.393Z,23.07
2017-08-25T22:30:53.831Z,25.60
2017-08-25T22:33:21.255Z,30.00
2017-08-25T22:35:48.697Z,31.23
2017-08-25T22:38:16.157Z,29.73
2017-08-25T22:40:43.567Z,34.67
2017-08-25T22:43:10.999Z,34.20
2017-08-25T22:45:38.456Z,32.67
2017-08-25T22:48:05.890Z,34.43
2017-08-25T22:50:33.320Z,46.47
2017-08-25T22:53:00.750Z,39.53
2017-08-25T22:55:28.190Z,37.50
2017-08-25T22:57:55.616Z,46.67
2017-08-25T23:00:23.061Z,32.03
2017-08-25T23:02:50.500Z,28.63
2017-08-25T23:05:18.011Z,35.83
2017-08-25T23:07:45.433Z,34.23
2017-08-25T23:10:12.885Z,46.77
2017-08-25T23:12:40.300Z,39.03
2017-08-25T23:15:07.741Z,38.53
2017-08-25T23:17:35.182Z,50.67
2017-08-25T23:20:02.611Z,57.53
2017-08-25T23:22:30.127Z,41.00
2017-08-25T23:24:57.556Z,49.43
2017-08-25T23:27:24.996Z,52.03
2017-08-25T23:29:52.424Z,51.03
2017-08-25T23:32:19.856Z,53.60
2017-08-25T23:34:47.285Z,52.70
2017-08-25T23:37:14.730Z,56.87
2017-08-25T23:39:42.160Z,64.47
2017-08-25T23:42:09.595Z,67.17
2017-08-25T23:44:37.029Z,60.77
2017-08-25T23:47:04.460Z,59.23
2017-08-25T23:49:31.895Z,60.23
2017-08-25T23:51:59.338Z,57.80
2017-08-25T23:54:26.765Z,59.07
2017-08-25T23:56:57.406Z,52.00
2017-08-25T23:59:24.846Z,54.53
